createdAt,value
2015-08-30T00:00:00.172Z,55.96
2015-08-30T00:00:12.563Z,55.77
2015-08-30T00:00:24.953Z,55.96
2015-08-30T00:00:37.330Z,55.87
2015-08-30T00:00:49.752Z,55.87
2015-08-30T00:01:02.143Z,56.16
2015-08-30T00:01:14.518Z,56.16
2015-08-30T00:01:26.877Z,56.16
2015-08-30T00:01:39.254Z,56.25
2015-08-30T00:01:51.645Z,56.25
2015-08-30T00:02:04.020Z,56.25
2015-08-30T00:02:16.395Z,55.87
2015-08-30T00:02:28.785Z,56.16
2015-08-30T00:02:41.162Z,55.87
2015-08-30T00:02:53.553Z,56.06
2015-08-30T00:03:05.928Z,55.87
2015-08-30T00:03:18.319Z,56.25
2015-08-30T00:03:30.709Z,55.96
2015-08-30T00:03:43.118Z,55.68
2015-08-30T00:03:55.539Z,55.58
2015-08-30T00:04:07.946Z,55.4
2015-08-30T00:04:20.352Z,55.3
2015-08-30T00:04:32.758Z,55.01
2015-08-30T00:04:45.182Z,55.01
2015-08-30T00:04:57.573Z,55.01
2015-08-30T00:05:09.979Z,54.82
2015-08-30T00:05:22.401Z,54.82
2015-08-30T00:05:34.791Z,54.82
2015-08-30T00:05:47.200Z,54.63
2015-08-30T00:05:58.872Z,54.91
2015-08-30T00:06:11.247Z,54.82
2015-08-30T00:06:22.918Z,54.72
2015-08-30T00:06:35.293Z,54.91
2015-08-30T00:06:47.669Z,54.91
2015-08-30T00:07:00.044Z,54.91
2015-08-30T00:07:12.419Z,55.3
2015-08-30T00:07:24.794Z,55.01
2015-08-30T00:07:37.169Z,55.11
2015-08-30T00:07:49.547Z,54.91
2015-08-30T00:08:01.922Z,54.82
2015-08-30T00:08:14.313Z,54.72
2015-08-30T00:08:26.688Z,54.72
2015-08-30T00:08:39.063Z,54.72
2015-08-30T00:08:51.456Z,54.44
2015-08-30T00:09:03.831Z,54.44
2015-08-30T00:09:16.206Z,53.96
2015-08-30T00:09:28.581Z,53.96
2015-08-30T00:09:40.956Z,54.06
2015-08-30T00:09:53.333Z,54.44
2015-08-30T00:10:05.708Z,54.44
2015-08-30T00:10:18.098Z,54.44
2015-08-30T00:10:30.473Z,54.34
2015-08-30T00:10:42.864Z,54.53
2015-08-30T00:10:55.241Z,54.72
2015-08-30T00:11:07.616Z,54.53
2015-08-30T00:11:19.991Z,54.72
2015-08-30T00:11:32.366Z,55.2
2015-08-30T00:11:44.757Z,55.2
2015-08-30T00:11:57.165Z,55.01
2015-08-30T00:12:08.837Z,55.11
2015-08-30T00:12:20.524Z,55.01
2015-08-30T00:12:32.915Z,55.01
2015-08-30T00:12:45.305Z,55.58
2015-08-30T00:12:57.714Z,55.3
2015-08-30T00:13:10.120Z,55.49
2015-08-30T00:13:22.511Z,55.3
2015-08-30T00:13:34.886Z,55.2
2015-08-30T00:13:47.276Z,55.01
2015-08-30T00:13:59.684Z,55.11
2015-08-30T00:14:12.075Z,54.82
2015-08-30T00:14:24.481Z,54.34
2015-08-30T00:14:36.888Z,54.44
2015-08-30T00:14:49.294Z,54.82
2015-08-30T00:15:00.998Z,54.15
2015-08-30T00:15:13.373Z,54.53
2015-08-30T00:15:25.748Z,54.25
2015-08-30T00:15:38.123Z,54.15
2015-08-30T00:15:50.498Z,53.77
2015-08-30T00:16:02.876Z,53.96
2015-08-30T00:16:15.251Z,53.86
2015-08-30T00:16:27.626Z,53.67
2015-08-30T00:16:40.001Z,54.06
2015-08-30T00:16:52.392Z,53.67
2015-08-30T00:17:04.768Z,53.1
2015-08-30T00:17:17.143Z,53.2
2015-08-30T00:17:29.518Z,53.77
2015-08-30T00:17:41.893Z,53.77
2015-08-30T00:17:54.268Z,53.39
2015-08-30T00:18:05.957Z,53.58
2015-08-30T00:18:18.332Z,53
2015-08-30T00:18:30.691Z,53.39
2015-08-30T00:18:43.066Z,53.2
2015-08-30T00:18:55.457Z,53
2015-08-30T00:19:07.835Z,53.2
2015-08-30T00:19:20.210Z,53.2
2015-08-30T00:19:32.569Z,53
2015-08-30T00:19:44.960Z,53.2
2015-08-30T00:19:57.335Z,53.1
2015-08-30T00:20:09.712Z,52.91
2015-08-30T00:20:21.384Z,53.1
2015-08-30T00:20:33.759Z,52.91
2015-08-30T00:20:46.134Z,53
2015-08-30T00:20:57.821Z,52.81
2015-08-30T00:21:10.229Z,53.2
2015-08-30T00:21:22.619Z,52.91
2015-08-30T00:21:35.010Z,52.81
2015-08-30T00:21:47.385Z,52.62
2015-08-30T00:21:59.776Z,52.72
2015-08-30T00:22:12.185Z,52.72
2015-08-30T00:22:24.575Z,52.72
2015-08-30T00:22:36.982Z,52.72
2015-08-30T00:22:49.388Z,52.91
2015-08-30T00:23:01.794Z,52.91
2015-08-30T00:23:14.201Z,53
2015-08-30T00:23:26.608Z,53
2015-08-30T00:23:38.998Z,53
2015-08-30T00:23:51.420Z,53.58
2015-08-30T00:24:03.826Z,53.29
2015-08-30T00:24:16.251Z,53.29
2015-08-30T00:24:28.642Z,53.2
2015-08-30T00:24:41.001Z,53.39
2015-08-30T00:24:53.392Z,53.67
2015-08-30T00:25:05.767Z,53.67
2015-08-30T00:25:18.143Z,53.58
2015-08-30T00:25:30.518Z,53.39
2015-08-30T00:25:42.893Z,53.2
2015-08-30T00:25:55.284Z,52.81
2015-08-30T00:26:07.674Z,53
2015-08-30T00:26:20.052Z,53.2
2015-08-30T00:26:32.427Z,53
2015-08-30T00:26:44.802Z,53.39
2015-08-30T00:26:57.177Z,53.39
2015-08-30T00:27:09.552Z,53.77
2015-08-30T00:27:21.959Z,53.67
2015-08-30T00:27:34.334Z,52.81
2015-08-30T00:27:46.694Z,53.29
2015-08-30T00:27:59.084Z,53
2015-08-30T00:28:11.459Z,52.72
2015-08-30T00:28:23.836Z,52.72
2015-08-30T00:28:35.508Z,52.81
2015-08-30T00:28:47.883Z,52.62
2015-08-30T00:29:00.274Z,52.53
2015-08-30T00:29:12.649Z,52.81
2015-08-30T00:29:25.026Z,52.34
2015-08-30T00:29:37.401Z,52.05
2015-08-30T00:29:49.776Z,52.15
2015-08-30T00:30:02.167Z,51.86
2015-08-30T00:30:14.557Z,52.24
2015-08-30T00:30:26.950Z,52.34
2015-08-30T00:30:39.340Z,52.05
2015-08-30T00:30:51.731Z,52.05
2015-08-30T00:31:04.106Z,52.34
2015-08-30T00:31:16.497Z,52.05
2015-08-30T00:31:28.906Z,52.05
2015-08-30T00:31:41.328Z,51.86
2015-08-30T00:31:53.734Z,51.38
2015-08-30T00:32:06.140Z,51.19
2015-08-30T00:32:18.531Z,50.71
2015-08-30T00:32:30.954Z,50.52
2015-08-30T00:32:43.360Z,50.24
2015-08-30T00:32:55.766Z,50.14
2015-08-30T00:33:08.188Z,49.47
2015-08-30T00:33:20.594Z,49.38
2015-08-30T00:33:33.003Z,49.28
2015-08-30T00:33:45.425Z,49.09
2015-08-30T00:33:57.800Z,49.18
2015-08-30T00:34:10.190Z,49.28
2015-08-30T00:34:22.565Z,48.42
2015-08-30T00:34:34.943Z,48.71
2015-08-30T00:34:47.318Z,48.71
2015-08-30T00:34:59.709Z,48.52
2015-08-30T00:35:12.068Z,48.61
2015-08-30T00:35:24.459Z,48.61
2015-08-30T00:35:36.835Z,48.52
2015-08-30T00:35:49.210Z,48.52
2015-08-30T00:36:01.585Z,48.52
2015-08-30T00:36:13.960Z,48.8
2015-08-30T00:36:26.335Z,48.8
2015-08-30T00:36:38.712Z,48.42
2015-08-30T00:36:51.102Z,48.8
2015-08-30T00:37:03.477Z,48.04
2015-08-30T00:37:15.884Z,47.75
2015-08-30T00:37:28.259Z,47.56
2015-08-30T00:37:40.636Z,47.08
2015-08-30T00:37:53.011Z,46.8
2015-08-30T00:38:05.386Z,46.32
2015-08-30T00:38:17.776Z,46.06
2015-08-30T00:38:30.151Z,46.25
2015-08-30T00:38:42.529Z,45.58
2015-08-30T00:38:54.904Z,45.48
2015-08-30T00:39:07.279Z,44.91
2015-08-30T00:39:19.654Z,44.81
2015-08-30T00:39:32.029Z,45.01
2015-08-30T00:39:44.405Z,44.91
2015-08-30T00:39:56.812Z,44.53
2015-08-30T00:40:09.202Z,44.53
2015-08-30T00:40:20.874Z,44.91
2015-08-30T00:40:33.280Z,44.72
2015-08-30T00:40:45.658Z,44.81
2015-08-30T00:40:58.065Z,44.24
2015-08-30T00:41:10.471Z,44.43
2015-08-30T00:41:22.877Z,44.53
2015-08-30T00:41:35.283Z,44.43
2015-08-30T00:41:47.691Z,44.34
2015-08-30T00:42:00.097Z,44.34
2015-08-30T00:42:12.534Z,44.62
2015-08-30T00:42:24.925Z,43.95
2015-08-30T00:42:37.331Z,44.05
2015-08-30T00:42:49.739Z,44.15
2015-08-30T00:43:02.146Z,44.05
2015-08-30T00:43:14.536Z,43.57
2015-08-30T00:43:26.958Z,43.57
2015-08-30T00:43:39.396Z,43.66
2015-08-30T00:43:51.773Z,43.66
2015-08-30T00:44:04.148Z,43.66
2015-08-30T00:44:16.523Z,43.95
2015-08-30T00:44:28.898Z,43.29
2015-08-30T00:44:41.273Z,43
2015-08-30T00:44:53.650Z,42.71
2015-08-30T00:45:06.025Z,42.24
2015-08-30T00:45:18.415Z,41.85
2015-08-30T00:45:30.790Z,41.18
2015-08-30T00:45:43.165Z,41.28
2015-08-30T00:45:55.542Z,41.56
2015-08-30T00:46:07.917Z,41.47
2015-08-30T00:46:20.292Z,41.75
2015-08-30T00:46:32.667Z,41.75
2015-08-30T00:46:45.042Z,41.75
2015-08-30T00:46:57.451Z,42.14
2015-08-30T00:47:09.826Z,42.14
2015-08-30T00:47:22.201Z,42.43
2015-08-30T00:47:34.576Z,42.61
2015-08-30T00:47:46.951Z,42.43
2015-08-30T00:47:59.328Z,42.61
2015-08-30T00:48:11.734Z,42.81
2015-08-30T00:48:24.109Z,42.9
2015-08-30T00:48:36.484Z,43
2015-08-30T00:48:48.843Z,42.9
2015-08-30T00:49:01.251Z,43
2015-08-30T00:49:13.626Z,42.24
2015-08-30T00:49:26.001Z,42.04
2015-08-30T00:49:37.673Z,41.56
2015-08-30T00:49:50.064Z,41.75
2015-08-30T00:50:02.457Z,41.38
2015-08-30T00:50:14.832Z,41.18
2015-08-30T00:50:27.222Z,41.28
2015-08-30T00:50:39.628Z,41.18
2015-08-30T00:50:52.035Z,41.09
2015-08-30T00:51:04.459Z,41.28
2015-08-30T00:51:16.865Z,41.28
2015-08-30T00:51:29.255Z,41.09
2015-08-30T00:51:41.677Z,41.28
2015-08-30T00:51:54.084Z,40.89
2015-08-30T00:52:06.492Z,40.7
2015-08-30T00:52:18.867Z,40.8
2015-08-30T00:52:31.257Z,40.7
2015-08-30T00:52:43.664Z,40.89
2015-08-30T00:52:56.070Z,40.8
2015-08-30T00:53:08.478Z,40.7
2015-08-30T00:53:20.853Z,40.61
2015-08-30T00:53:33.228Z,40.8
2015-08-30T00:53:45.619Z,40.8
2015-08-30T00:53:58.025Z,40.7
2015-08-30T00:54:10.386Z,40.7
2015-08-30T00:54:22.761Z,41.09
2015-08-30T00:54:35.168Z,40.61
2015-08-30T00:54:47.543Z,40.89
2015-08-30T00:54:59.918Z,40.61
2015-08-30T00:55:12.295Z,40.32
2015-08-30T00:55:24.685Z,40.42
2015-08-30T00:55:37.060Z,40.52
2015-08-30T00:55:49.435Z,40.52
2015-08-30T00:56:01.826Z,40.32
2015-08-30T00:56:14.219Z,40.42
2015-08-30T00:56:26.594Z,40.61
2015-08-30T00:56:38.969Z,40.8
2015-08-30T00:56:51.344Z,40.8
2015-08-30T00:57:03.719Z,40.61
2015-08-30T00:57:16.095Z,40.89
2015-08-30T00:57:28.470Z,41.09
2015-08-30T00:57:40.860Z,40.99
2015-08-30T00:57:53.235Z,41.38
2015-08-30T00:58:05.610Z,41.28
2015-08-30T00:58:17.988Z,41.09
2015-08-30T00:58:30.363Z,40.8
2015-08-30T00:58:42.738Z,40.61
2015-08-30T00:58:55.113Z,40.89
2015-08-30T00:59:06.801Z,40.61
2015-08-30T00:59:19.193Z,40.52
2015-08-30T00:59:31.584Z,40.52
2015-08-30T00:59:43.959Z,40.8
2015-08-30T00:59:56.365Z,40.99
2015-08-30T01:00:08.740Z,40.99
2015-08-30T01:00:21.147Z,41.38
2015-08-30T01:00:33.569Z,41.38
2015-08-30T01:00:45.976Z,41.66
2015-08-30T01:00:58.382Z,41.38
2015-08-30T01:01:10.788Z,41.18
2015-08-30T01:01:23.197Z,41.47
2015-08-30T01:01:35.604Z,41.75
2015-08-30T01:01:48.010Z,41.47
2015-08-30T01:02:00.416Z,41.47
2015-08-30T01:02:12.822Z,41.47
2015-08-30T01:02:25.246Z,41.28
2015-08-30T01:02:37.637Z,41.56
2015-08-30T01:02:50.012Z,41.75
2015-08-30T01:03:02.387Z,41.66
2015-08-30T01:03:14.777Z,41.47
2015-08-30T01:03:27.170Z,41.56
2015-08-30T01:03:39.545Z,41.56
2015-08-30T01:03:51.920Z,41.47
2015-08-30T01:04:04.311Z,41.75
2015-08-30T01:04:16.686Z,41.38
2015-08-30T01:04:29.062Z,42.14
2015-08-30T01:04:41.437Z,42.04
2015-08-30T01:04:53.812Z,42.04
2015-08-30T01:05:06.187Z,42.43
2015-08-30T01:05:18.562Z,42.24
2015-08-30T01:05:30.939Z,42.43
2015-08-30T01:05:43.329Z,42.61
2015-08-30T01:05:54.986Z,42.43
2015-08-30T01:06:07.376Z,42.71
2015-08-30T01:06:19.767Z,42.52
2015-08-30T01:06:32.145Z,42.61
2015-08-30T01:06:43.817Z,42.71
2015-08-30T01:06:56.207Z,42.81
2015-08-30T01:07:08.582Z,42.9
2015-08-30T01:07:20.957Z,42.52
2015-08-30T01:07:33.397Z,42.81
2015-08-30T01:07:45.772Z,42.71
2015-08-30T01:07:58.147Z,43.09
2015-08-30T01:08:10.522Z,43.09
2015-08-30T01:08:22.912Z,43.19
2015-08-30T01:08:35.305Z,43.19
2015-08-30T01:08:47.680Z,43.09
2015-08-30T01:08:59.368Z,43.29
2015-08-30T01:09:11.758Z,43.09
2015-08-30T01:09:24.149Z,43.09
2015-08-30T01:09:36.573Z,43.19
2015-08-30T01:09:48.979Z,43.29
2015-08-30T01:10:01.401Z,42.81
2015-08-30T01:10:13.791Z,43.38
2015-08-30T01:10:26.198Z,43.48
2015-08-30T01:10:38.606Z,43.57
2015-08-30T01:10:50.997Z,43.48
2015-08-30T01:11:03.403Z,43.66
2015-08-30T01:11:15.825Z,43.57
2015-08-30T01:11:28.215Z,43.29
2015-08-30T01:11:40.638Z,43.95
2015-08-30T01:11:53.044Z,43.65
2015-08-30T01:12:05.466Z,43.55
2015-08-30T01:12:17.841Z,43.95
2015-08-30T01:12:30.216Z,43.74
2015-08-30T01:12:42.594Z,44.05
2015-08-30T01:12:54.969Z,43.84
2015-08-30T01:13:07.360Z,43.74
2015-08-30T01:13:19.735Z,43.65
2015-08-30T01:13:32.110Z,43.84
2015-08-30T01:13:44.502Z,43.26
2015-08-30T01:13:56.892Z,43.38
2015-08-30T01:14:09.267Z,43.55
2015-08-30T01:14:21.642Z,43.46
2015-08-30T01:14:34.002Z,43.55
2015-08-30T01:14:46.380Z,43.93
2015-08-30T01:14:58.755Z,43.55
2015-08-30T01:15:11.161Z,43.74
2015-08-30T01:15:23.536Z,43.84
2015-08-30T01:15:35.911Z,43.65
2015-08-30T01:15:48.287Z,43.26
2015-08-30T01:16:00.662Z,42.5
2015-08-30T01:16:12.334Z,42.6
2015-08-30T01:16:24.693Z,42.5
2015-08-30T01:16:37.084Z,42.02
2015-08-30T01:16:49.461Z,42.21
2015-08-30T01:17:01.836Z,41.93
2015-08-30T01:17:14.226Z,42.11
2015-08-30T01:17:25.883Z,42.02
2015-08-30T01:17:38.258Z,42.02
2015-08-30T01:17:50.651Z,41.93
2015-08-30T01:18:03.042Z,42.02
2015-08-30T01:18:15.432Z,42.11
2015-08-30T01:18:27.807Z,42.6
2015-08-30T01:18:40.198Z,42.6
2015-08-30T01:18:52.574Z,42.5
2015-08-30T01:19:04.965Z,42.5
2015-08-30T01:19:17.371Z,42.69
2015-08-30T01:19:29.793Z,42.5
2015-08-30T01:19:42.183Z,42.4
2015-08-30T01:19:54.592Z,42.5
2015-08-30T01:20:06.982Z,42.69
2015-08-30T01:20:19.389Z,42.69
2015-08-30T01:20:31.795Z,42.4
2015-08-30T01:20:44.201Z,42.4
2015-08-30T01:20:56.626Z,42.4
2015-08-30T01:21:09.032Z,42.6
2015-08-30T01:21:21.454Z,42.5
2015-08-30T01:21:33.829Z,42.31
2015-08-30T01:21:46.204Z,42.31
2015-08-30T01:21:58.580Z,42.4
2015-08-30T01:22:10.955Z,42.4
2015-08-30T01:22:23.330Z,42.6
2015-08-30T01:22:35.705Z,42.97
2015-08-30T01:22:48.080Z,42.5
2015-08-30T01:23:00.457Z,42.88
2015-08-30T01:23:12.848Z,42.5
2015-08-30T01:23:25.207Z,42.88
2015-08-30T01:23:36.879Z,42.79
2015-08-30T01:23:49.254Z,42.6
2015-08-30T01:24:01.631Z,42.79
2015-08-30T01:24:14.006Z,42.79
2015-08-30T01:24:26.397Z,42.69
2015-08-30T01:24:38.787Z,42.4
2015-08-30T01:24:51.162Z,42.69
2015-08-30T01:25:03.539Z,42.6
2015-08-30T01:25:15.914Z,42.88
2015-08-30T01:25:28.289Z,42.6
2015-08-30T01:25:40.664Z,42.6
2015-08-30T01:25:53.039Z,42.5
2015-08-30T01:26:05.432Z,42.21
2015-08-30T01:26:17.807Z,42.02
2015-08-30T01:26:30.182Z,41.93
2015-08-30T01:26:42.557Z,42.02
2015-08-30T01:26:54.932Z,42.02
2015-08-30T01:27:07.309Z,42.21
2015-08-30T01:27:19.684Z,42.21
2015-08-30T01:27:32.074Z,42.11
2015-08-30T01:27:44.465Z,42.02
2015-08-30T01:27:56.137Z,42.02
2015-08-30T01:28:08.561Z,42.11
2015-08-30T01:28:20.951Z,42.02
2015-08-30T01:28:33.358Z,42.02
2015-08-30T01:28:45.764Z,42.02
2015-08-30T01:28:58.201Z,42.02
2015-08-30T01:29:10.594Z,41.83
2015-08-30T01:29:23.000Z,42.21
2015-08-30T01:29:35.407Z,41.93
2015-08-30T01:29:47.813Z,42.02
2015-08-30T01:30:00.219Z,41.45
2015-08-30T01:30:12.643Z,41.74
2015-08-30T01:30:24.346Z,41.74
2015-08-30T01:30:36.737Z,41.45
2015-08-30T01:30:49.174Z,41.55
2015-08-30T01:31:01.549Z,41.38
2015-08-30T01:31:13.926Z,41.35
2015-08-30T01:31:26.301Z,41.47
2015-08-30T01:31:38.676Z,41.74
2015-08-30T01:31:51.051Z,41.74
2015-08-30T01:32:03.426Z,41.55
2015-08-30T01:32:15.069Z,42.02
2015-08-30T01:32:27.459Z,41.93
2015-08-30T01:32:39.834Z,42.21
2015-08-30T01:32:52.209Z,42.02
2015-08-30T01:33:04.584Z,42.11
2015-08-30T01:33:16.258Z,42.02
2015-08-30T01:33:28.633Z,42.11
2015-08-30T01:33:41.008Z,42.21
2015-08-30T01:33:53.399Z,41.83
2015-08-30T01:34:05.774Z,42.02
2015-08-30T01:34:18.151Z,42.21
2015-08-30T01:34:30.526Z,42.21
2015-08-30T01:34:42.901Z,42.02
2015-08-30T01:34:55.292Z,41.93
2015-08-30T01:35:07.667Z,42.11
2015-08-30T01:35:20.044Z,41.93
2015-08-30T01:35:31.747Z,42.11
2015-08-30T01:35:44.122Z,41.93
2015-08-30T01:35:56.497Z,41.45
2015-08-30T01:36:08.872Z,41.55
2015-08-30T01:36:21.249Z,41.74
2015-08-30T01:36:32.921Z,41.74
2015-08-30T01:36:45.296Z,41.45
2015-08-30T01:36:57.686Z,41.45
2015-08-30T01:37:10.077Z,41.64
2015-08-30T01:37:22.454Z,41.45
2015-08-30T01:37:34.844Z,41.26
2015-08-30T01:37:47.235Z,41.45
2015-08-30T01:37:59.641Z,41.26
2015-08-30T01:38:12.048Z,41.16
2015-08-30T01:38:24.471Z,40.97
2015-08-30T01:38:36.878Z,40.69
2015-08-30T01:38:49.284Z,40.59
2015-08-30T01:39:01.706Z,40.61
2015-08-30T01:39:14.112Z,40.78
2015-08-30T01:39:26.520Z,40.78
2015-08-30T01:39:38.942Z,40.7
2015-08-30T01:39:51.348Z,40.8
2015-08-30T01:40:03.755Z,40.8
2015-08-30T01:40:16.192Z,40.69
2015-08-30T01:40:28.585Z,40.8
2015-08-30T01:40:40.960Z,40.8
2015-08-30T01:40:53.319Z,40.78
2015-08-30T01:41:05.694Z,40.8
2015-08-30T01:41:18.069Z,40.8
2015-08-30T01:41:30.446Z,40.8
2015-08-30T01:41:42.821Z,40.8
2015-08-30T01:41:55.196Z,40.8
2015-08-30T01:42:07.571Z,40.8
2015-08-30T01:42:19.946Z,40.8
2015-08-30T01:42:32.323Z,40.99
2015-08-30T01:42:44.698Z,40.61
2015-08-30T01:42:57.073Z,40.61
2015-08-30T01:43:09.464Z,40.8
2015-08-30T01:43:21.839Z,40.7
2015-08-30T01:43:34.215Z,41.09
2015-08-30T01:43:46.605Z,41.09
2015-08-30T01:43:58.980Z,41.45
2015-08-30T01:44:11.355Z,40.89
2015-08-30T01:44:23.730Z,41.09
2015-08-30T01:44:36.107Z,40.99
2015-08-30T01:44:48.482Z,40.88
2015-08-30T01:45:00.154Z,40.88
2015-08-30T01:45:12.545Z,40.59
2015-08-30T01:45:24.201Z,40.61
2015-08-30T01:45:36.595Z,40.7
2015-08-30T01:45:48.970Z,40.88
2015-08-30T01:46:01.345Z,40.88
2015-08-30T01:46:13.720Z,40.59
2015-08-30T01:46:26.110Z,40.78
2015-08-30T01:46:38.503Z,40.69
2015-08-30T01:46:50.894Z,41.26
2015-08-30T01:47:03.284Z,41.06
2015-08-30T01:47:15.659Z,41.45
2015-08-30T01:47:28.066Z,41.26
2015-08-30T01:47:40.474Z,40.88
2015-08-30T01:47:52.896Z,41.35
2015-08-30T01:48:05.302Z,41.26
2015-08-30T01:48:17.708Z,40.88
2015-08-30T01:48:30.114Z,41.64
2015-08-30T01:48:42.537Z,41.55
2015-08-30T01:48:54.928Z,41.16
2015-08-30T01:49:07.365Z,41.45
2015-08-30T01:49:19.787Z,41.26
2015-08-30T01:49:32.178Z,41.26
2015-08-30T01:49:44.603Z,41.16
2015-08-30T01:49:56.978Z,41.16
2015-08-30T01:50:09.353Z,41.45
2015-08-30T01:50:21.728Z,41.55
2015-08-30T01:50:34.103Z,41.35
2015-08-30T01:50:46.479Z,41.45
2015-08-30T01:50:58.854Z,41.55
2015-08-30T01:51:11.229Z,41.16
2015-08-30T01:51:23.604Z,41.26
2015-08-30T01:51:35.979Z,41.45
2015-08-30T01:51:48.356Z,41.35
2015-08-30T01:52:00.028Z,41.45
2015-08-30T01:52:12.403Z,41.35
2015-08-30T01:52:24.778Z,41.35
2015-08-30T01:52:37.153Z,41.35
2015-08-30T01:52:49.545Z,41.35
2015-08-30T01:53:01.920Z,41.55
2015-08-30T01:53:14.295Z,41.35
2015-08-30T01:53:26.670Z,41.55
2015-08-30T01:53:39.045Z,41.35
2015-08-30T01:53:51.423Z,41.45
2015-08-30T01:54:03.798Z,41.45
2015-08-30T01:54:16.189Z,41.35
2015-08-30T01:54:28.564Z,41.35
2015-08-30T01:54:40.923Z,41.64
2015-08-30T01:54:53.299Z,41.35
2015-08-30T01:55:05.674Z,41.26
2015-08-30T01:55:18.049Z,41.45
2015-08-30T01:55:30.424Z,41.35
2015-08-30T01:55:42.815Z,41.35
2015-08-30T01:55:55.208Z,41.26
2015-08-30T01:56:07.645Z,40.97
2015-08-30T01:56:20.036Z,40.69
2015-08-30T01:56:32.426Z,40.69
2015-08-30T01:56:44.817Z,40.69
2015-08-30T01:56:57.210Z,40.88
2015-08-30T01:57:09.631Z,40.88
2015-08-30T01:57:22.038Z,40.88
2015-08-30T01:57:34.460Z,40.59
2015-08-30T01:57:46.147Z,40.59
2015-08-30T01:57:58.555Z,40.69
2015-08-30T01:58:10.962Z,40.88
2015-08-30T01:58:23.383Z,40.69
2015-08-30T01:58:35.790Z,40.69
2015-08-30T01:58:47.493Z,41.06
2015-08-30T01:58:59.901Z,41.16
2015-08-30T01:59:12.307Z,40.97
2015-08-30T01:59:24.714Z,41.16
2015-08-30T01:59:37.104Z,40.88
2015-08-30T01:59:49.495Z,40.59
2015-08-30T02:00:01.872Z,40.69
2015-08-30T02:00:14.247Z,40.69
2015-08-30T02:00:26.622Z,40.78
2015-08-30T02:00:38.997Z,40.78
2015-08-30T02:00:51.387Z,40.69
2015-08-30T02:01:03.780Z,40.88
2015-08-30T02:01:16.155Z,40.69
2015-08-30T02:01:28.530Z,40.59
2015-08-30T02:01:40.921Z,40.49
2015-08-30T02:01:53.296Z,40.69
2015-08-30T02:02:05.673Z,40.78
2015-08-30T02:02:18.048Z,40.59
2015-08-30T02:02:30.438Z,40.59
2015-08-30T02:02:42.095Z,40.59
2015-08-30T02:02:54.485Z,40.59
2015-08-30T02:03:06.863Z,40.69
2015-08-30T02:03:19.238Z,40.78
2015-08-30T02:03:31.613Z,40.59
2015-08-30T02:03:43.988Z,40.88
2015-08-30T02:03:56.379Z,40.69
2015-08-30T02:04:08.036Z,40.59
2015-08-30T02:04:20.411Z,40.78
2015-08-30T02:04:32.802Z,40.78
2015-08-30T02:04:44.458Z,40.88
2015-08-30T02:04:56.817Z,40.78
2015-08-30T02:05:09.194Z,40.88
2015-08-30T02:05:21.601Z,40.59
2015-08-30T02:05:33.991Z,40.59
2015-08-30T02:05:46.382Z,40.88
2015-08-30T02:05:58.772Z,41.26
2015-08-30T02:06:11.165Z,41.16
2015-08-30T02:06:22.853Z,40.97
2015-08-30T02:06:35.274Z,41.35
2015-08-30T02:06:47.681Z,41.45
2015-08-30T02:07:00.087Z,41.26
2015-08-30T02:07:12.495Z,41.26
2015-08-30T02:07:24.901Z,41.16
2015-08-30T02:07:37.308Z,41.35
2015-08-30T02:07:49.714Z,41.26
2015-08-30T02:08:02.136Z,41.16
2015-08-30T02:08:14.544Z,41.35
2015-08-30T02:08:26.950Z,41.26
2015-08-30T02:08:39.357Z,41.06
2015-08-30T02:08:51.732Z,41.35
2015-08-30T02:09:04.107Z,41.55
2015-08-30T02:09:16.484Z,41.26
2015-08-30T02:09:28.859Z,41.64
2015-08-30T02:09:41.234Z,41.26
2015-08-30T02:09:53.609Z,41.26
2015-08-30T02:10:05.984Z,41.83
2015-08-30T02:10:18.376Z,41.74
2015-08-30T02:10:30.751Z,41.74
2015-08-30T02:10:43.126Z,41.55
2015-08-30T02:10:55.501Z,41.74
2015-08-30T02:11:07.876Z,41.74
2015-08-30T02:11:20.253Z,41.55
2015-08-30T02:11:32.613Z,41.55
2015-08-30T02:11:45.003Z,41.55
2015-08-30T02:11:57.363Z,41.83
2015-08-30T02:12:09.753Z,41.93
2015-08-30T02:12:22.130Z,41.93
2015-08-30T02:12:34.505Z,41.93
2015-08-30T02:12:46.880Z,42.21
2015-08-30T02:12:59.255Z,42.02
2015-08-30T02:13:11.646Z,41.93
2015-08-30T02:13:24.023Z,41.93
2015-08-30T02:13:36.398Z,42.02
2015-08-30T02:13:48.773Z,42.11
2015-08-30T02:14:01.148Z,42.21
2015-08-30T02:14:13.523Z,42.31
2015-08-30T02:14:25.900Z,42.5
2015-08-30T02:14:38.290Z,42.69
2015-08-30T02:14:50.681Z,42.69
2015-08-30T02:15:03.056Z,42.88
2015-08-30T02:15:15.447Z,42.6
2015-08-30T02:15:27.824Z,42.88
2015-08-30T02:15:40.214Z,42.97
2015-08-30T02:15:52.636Z,42.6
2015-08-30T02:16:05.042Z,42.5
2015-08-30T02:16:17.449Z,43.07
2015-08-30T02:16:29.841Z,43.17
2015-08-30T02:16:41.529Z,43.26
2015-08-30T02:16:53.935Z,43.15
2015-08-30T02:17:06.341Z,43.07
2015-08-30T02:17:18.763Z,43.15
2015-08-30T02:17:31.171Z,43.26
2015-08-30T02:17:43.578Z,43.24
2015-08-30T02:17:56.000Z,43.43
2015-08-30T02:18:08.375Z,43.43
2015-08-30T02:18:20.750Z,43.43
2015-08-30T02:18:33.142Z,43.72
2015-08-30T02:18:45.502Z,43.62
2015-08-30T02:18:57.908Z,43.72
2015-08-30T02:19:10.283Z,43.62
2015-08-30T02:19:22.658Z,43.82
2015-08-30T02:19:35.035Z,43.33
2015-08-30T02:19:47.410Z,43.33
2015-08-30T02:19:59.785Z,43.43
2015-08-30T02:20:12.160Z,43.72
2015-08-30T02:20:24.535Z,43.82
2015-08-30T02:20:36.912Z,43.82
2015-08-30T02:20:49.287Z,43.62
2015-08-30T02:21:01.677Z,43.91
2015-08-30T02:21:14.052Z,43.82
2015-08-30T02:21:26.427Z,43.62
2015-08-30T02:21:38.803Z,43.53
2015-08-30T02:21:51.178Z,43.24
2015-08-30T02:22:03.553Z,43.91
2015-08-30T02:22:15.928Z,43.82
2015-08-30T02:22:28.303Z,43.53
2015-08-30T02:22:40.697Z,43.33
2015-08-30T02:22:53.088Z,43.53
2015-08-30T02:23:05.463Z,43.53
2015-08-30T02:23:17.838Z,43.72
2015-08-30T02:23:30.213Z,43.82
2015-08-30T02:23:42.590Z,43.62
2015-08-30T02:23:54.980Z,43.62
2015-08-30T02:24:07.355Z,43.24
2015-08-30T02:24:19.746Z,43.53
2015-08-30T02:24:32.152Z,43.53
2015-08-30T02:24:44.529Z,43.43
2015-08-30T02:24:56.951Z,43.72
2015-08-30T02:25:09.373Z,43.82
2015-08-30T02:25:21.795Z,43.53
2015-08-30T02:25:34.185Z,43.53
2015-08-30T02:25:45.875Z,43.62
2015-08-30T02:25:58.281Z,43.53
2015-08-30T02:26:10.766Z,43.53
2015-08-30T02:26:23.172Z,43.43
2015-08-30T02:26:35.578Z,43.33
2015-08-30T02:26:48.002Z,43.53
2015-08-30T02:27:00.408Z,43.72
2015-08-30T02:27:12.814Z,43.24
2015-08-30T02:27:25.189Z,43.15
2015-08-30T02:27:37.580Z,43.53
2015-08-30T02:27:49.957Z,43.24
2015-08-30T02:28:02.332Z,43.43
2015-08-30T02:28:14.707Z,43.43
2015-08-30T02:28:27.082Z,43.43
2015-08-30T02:28:39.457Z,43.62
2015-08-30T02:28:51.131Z,43.72
2015-08-30T02:29:03.506Z,43.33
2015-08-30T02:29:15.881Z,43.91
2015-08-30T02:29:28.256Z,43.53
2015-08-30T02:29:40.631Z,43.33
2015-08-30T02:29:53.008Z,43.62
2015-08-30T02:30:05.383Z,43.91
2015-08-30T02:30:17.774Z,44.38
2015-08-30T02:30:30.164Z,43.62
2015-08-30T02:30:42.539Z,44.29
2015-08-30T02:30:54.932Z,44.1
2015-08-30T02:31:07.307Z,44.01
2015-08-30T02:31:19.682Z,44.2
2015-08-30T02:31:32.057Z,44.01
2015-08-30T02:31:43.729Z,44.01
2015-08-30T02:31:56.121Z,44.29
2015-08-30T02:32:08.496Z,44.1
2015-08-30T02:32:20.871Z,44.38
2015-08-30T02:32:33.246Z,44.2
2015-08-30T02:32:45.621Z,43.82
2015-08-30T02:32:57.998Z,43.62
2015-08-30T02:33:10.389Z,43.82
2015-08-30T02:33:22.780Z,44.01
2015-08-30T02:33:35.170Z,43.53
2015-08-30T02:33:47.561Z,43.43
2015-08-30T02:33:59.952Z,43.05
2015-08-30T02:34:12.359Z,42.67
2015-08-30T02:34:24.749Z,42.86
2015-08-30T02:34:37.156Z,42.57
2015-08-30T02:34:49.562Z,42.57
2015-08-30T02:35:01.970Z,42.77
2015-08-30T02:35:14.376Z,42.67
2015-08-30T02:35:26.798Z,42.38
2015-08-30T02:35:39.204Z,42.1
2015-08-30T02:35:51.611Z,42
2015-08-30T02:36:04.020Z,42
2015-08-30T02:36:16.411Z,42.1
2015-08-30T02:36:28.817Z,41.91
2015-08-30T02:36:41.223Z,42
2015-08-30T02:36:53.629Z,42.1
2015-08-30T02:37:06.022Z,41.81
2015-08-30T02:37:18.381Z,42.1
2015-08-30T02:37:30.756Z,41.62
2015-08-30T02:37:43.131Z,42
2015-08-30T02:37:55.506Z,41.91
2015-08-30T02:38:07.882Z,42
2015-08-30T02:38:20.273Z,42
2015-08-30T02:38:32.664Z,42.1
2015-08-30T02:38:44.320Z,42.1
2015-08-30T02:38:56.695Z,41.71
2015-08-30T02:39:09.087Z,42
2015-08-30T02:39:21.462Z,41.81
2015-08-30T02:39:33.837Z,42.19
2015-08-30T02:39:46.212Z,42.48
2015-08-30T02:39:58.587Z,42.48